createdAt,value
2022-12-17T00:02:33.475Z,30.23
2022-12-17T00:05:19.473Z,28.55
2022-12-17T00:08:05.357Z,27.20
2022-12-17T00:10:51.433Z,27.80
2022-12-17T00:13:41.552Z,27.60
2022-12-17T00:16:27.456Z,26.33
2022-12-17T00:22:28.069Z,29.00
2022-12-17T00:25:14.475Z,30.70
2022-12-17T00:28:00.598Z,30.38
2022-12-17T00:30:47.016Z,28.80
2022-12-17T00:33:33.266Z,29.75
2022-12-17T00:36:19.320Z,30.08
2022-12-17T00:39:07.599Z,29.85
2022-12-17T00:41:58.309Z,31.30
2022-12-17T00:44:44.144Z,32.67
2022-12-17T00:47:32.938Z,32.67
2022-12-17T00:50:22.109Z,34.05
2022-12-17T00:53:10.520Z,34.75
2022-12-17T00:55:59.802Z,32.38
2022-12-17T00:58:45.588Z,32.78
2022-12-17T01:01:34.311Z,34.95
2022-12-17T01:04:23.026Z,36.65
2022-12-17T01:07:08.976Z,37.25
2022-12-17T01:09:55.676Z,42.83
2022-12-17T01:12:42.074Z,40.47
2022-12-17T01:15:27.901Z,42.30
2022-12-17T01:18:13.675Z,42.47
2022-12-17T01:21:06.634Z,43.60
2022-12-17T01:23:52.640Z,42.70
2022-12-17T01:26:41.069Z,43.17
2022-12-17T01:29:27.299Z,42.95
2022-12-17T01:32:13.395Z,40.72
2022-12-17T01:35:24.473Z,42.08
2022-12-17T01:38:10.572Z,42.17
2022-12-17T01:40:56.377Z,41.35
2022-12-17T01:43:56.976Z,39.55
2022-12-17T01:46:50.414Z,40.30
2022-12-17T01:49:39.060Z,41.53
2022-12-17T01:52:24.955Z,40.35
2022-12-17T01:55:11.045Z,38.33
2022-12-17T01:57:57.917Z,39.75
2022-12-17T02:03:35.570Z,36.55
2022-12-17T02:06:44.738Z,36.72
2022-12-17T02:09:44.351Z,36.90
2022-12-17T02:12:47.414Z,35.17
2022-12-17T02:16:06.247Z,35.17
2022-12-17T02:19:01.719Z,33.85
2022-12-17T02:21:49.914Z,33.97
2022-12-17T02:24:47.211Z,34.63
2022-12-17T02:27:33.940Z,33.78
2022-12-17T02:30:25.506Z,35.40
2022-12-17T02:33:15.620Z,34.92
2022-12-17T02:36:16.759Z,35.83
2022-12-17T02:42:08.949Z,34.55
2022-12-17T02:44:57.083Z,34.60
2022-12-17T02:47:44.093Z,35.13
2022-12-17T02:50:30.810Z,34.25
2022-12-17T02:53:19.104Z,36.45
2022-12-17T02:56:04.901Z,35.63
2022-12-17T02:58:53.849Z,34.90
2022-12-17T03:01:39.940Z,34.70
2022-12-17T03:04:26.239Z,33.25
2022-12-17T03:07:12.409Z,34.88
2022-12-17T03:10:00.339Z,35.80
2022-12-17T03:12:48.843Z,35.65
2022-12-17T03:15:34.603Z,34.70
2022-12-17T03:18:20.574Z,33.05
2022-12-17T03:21:06.392Z,34.33
2022-12-17T03:23:52.504Z,34.10
2022-12-17T03:27:01.643Z,33.63
2022-12-17T03:29:46.467Z,35.22
2022-12-17T03:32:34.882Z,34.40
2022-12-17T03:38:30.944Z,30.17
2022-12-17T03:41:22.337Z,29.50
2022-12-17T03:44:10.687Z,27.58
2022-12-17T03:46:59.241Z,28.75
2022-12-17T03:49:45.313Z,26.23
2022-12-17T03:52:33.118Z,24.65
2022-12-17T03:55:19.585Z,24.63
2022-12-17T03:58:05.750Z,23.57
2022-12-17T04:00:51.831Z,23.25
2022-12-17T04:03:40.260Z,22.27
2022-12-17T04:06:28.963Z,22.15
2022-12-17T04:09:17.051Z,21.95
2022-12-17T04:12:02.752Z,21.23
2022-12-17T04:14:48.845Z,21.55
2022-12-17T04:18:13.054Z,21.23
2022-12-17T04:20:58.982Z,21.13
2022-12-17T04:23:45.024Z,20.75
2022-12-17T04:26:34.342Z,20.23
2022-12-17T04:32:40.697Z,21.35
2022-12-17T04:35:26.651Z,20.88
2022-12-17T04:38:12.568Z,21.00
2022-12-17T04:40:59.992Z,21.00
2022-12-17T04:43:46.154Z,20.60
2022-12-17T04:46:32.175Z,22.70
2022-12-17T04:49:17.989Z,23.20
2022-12-17T04:52:03.987Z,23.35
2022-12-17T04:54:50.014Z,28.17
2022-12-17T04:57:36.179Z,30.23
2022-12-17T05:00:22.510Z,30.50
2022-12-17T05:03:08.661Z,32.22
2022-12-17T05:05:54.752Z,32.85
2022-12-17T05:08:41.693Z,31.67
2022-12-17T05:11:28.042Z,30.55
2022-12-17T05:14:14.003Z,30.08
2022-12-17T05:17:00.224Z,30.00
2022-12-17T05:19:46.368Z,27.30
2022-12-17T05:22:36.018Z,24.77
2022-12-17T05:25:22.217Z,26.95
2022-12-17T05:28:12.440Z,24.73
2022-12-17T05:30:58.430Z,25.00
2022-12-17T05:33:44.234Z,23.23
2022-12-17T05:36:30.320Z,24.50
2022-12-17T05:39:16.182Z,24.73
2022-12-17T05:42:02.746Z,26.88
2022-12-17T05:44:48.638Z,30.17
2022-12-17T05:50:36.675Z,27.38
2022-12-17T05:53:23.912Z,26.08
2022-12-17T05:56:10.514Z,22.55
2022-12-17T05:58:57.133Z,23.88
2022-12-17T06:02:07.837Z,24.17
2022-12-17T06:04:57.506Z,24.58
2022-12-17T06:07:48.189Z,23.48
2022-12-17T06:10:34.278Z,22.33
2022-12-17T06:13:27.781Z,23.05
2022-12-17T06:16:13.511Z,22.50
2022-12-17T06:18:59.750Z,23.02
2022-12-17T06:21:45.994Z,24.45
2022-12-17T06:24:32.126Z,24.42
2022-12-17T06:27:17.993Z,25.23
2022-12-17T06:30:03.799Z,23.90
2022-12-17T06:32:49.882Z,25.70
2022-12-17T06:35:35.623Z,26.17
2022-12-17T06:38:24.003Z,27.15
2022-12-17T06:41:11.325Z,27.25
2022-12-17T06:43:57.163Z,27.33
2022-12-17T06:46:43.626Z,28.35
2022-12-17T06:49:29.396Z,29.83
2022-12-17T06:52:15.318Z,30.10
2022-12-17T06:55:01.337Z,31.27
2022-12-17T06:57:50.356Z,32.60
2022-12-17T07:00:36.900Z,33.72
2022-12-17T07:03:23.450Z,35.05
2022-12-17T07:06:09.277Z,32.88
2022-12-17T07:08:57.743Z,33.13
2022-12-17T07:11:43.569Z,34.17
2022-12-17T07:14:29.520Z,36.33
2022-12-17T07:17:19.851Z,35.97
2022-12-17T07:20:05.781Z,32.45
2022-12-17T07:22:51.867Z,36.42
2022-12-17T07:25:40.504Z,36.72
2022-12-17T07:28:56.975Z,39.10
2022-12-17T07:31:51.901Z,39.70
2022-12-17T07:38:09.777Z,39.88
2022-12-17T07:40:55.635Z,41.58
2022-12-17T07:43:48.252Z,41.35
2022-12-17T07:47:03.603Z,40.40
2022-12-17T07:49:49.903Z,41.45
2022-12-17T07:52:36.076Z,40.55
2022-12-17T07:55:22.099Z,41.35
2022-12-17T07:58:20.287Z,41.67
2022-12-17T08:01:06.143Z,41.88
2022-12-17T08:03:52.052Z,41.83
2022-12-17T08:06:40.418Z,42.53
2022-12-17T08:09:26.934Z,44.20
2022-12-17T08:12:23.060Z,45.33
2022-12-17T08:15:08.941Z,46.08
2022-12-17T08:17:54.739Z,47.17
2022-12-17T08:20:40.721Z,45.05
2022-12-17T08:23:35.269Z,45.35
2022-12-17T08:26:21.620Z,44.90
2022-12-17T08:29:07.625Z,44.65
2022-12-17T08:31:53.404Z,45.20
2022-12-17T08:34:42.578Z,45.22
2022-12-17T08:37:28.615Z,44.95
2022-12-17T08:40:14.250Z,43.08
2022-12-17T08:43:00.262Z,43.00
2022-12-17T08:45:46.492Z,43.90
2022-12-17T08:48:32.269Z,44.45
2022-12-17T08:51:18.377Z,40.50
2022-12-17T08:54:07.365Z,41.15
2022-12-17T08:56:52.990Z,44.05
2022-12-17T08:59:39.834Z,45.00
2022-12-17T09:02:28.246Z,44.13
2022-12-17T09:05:14.106Z,44.55
2022-12-17T09:08:20.598Z,43.72
2022-12-17T09:11:10.699Z,45.70
2022-12-17T09:16:42.522Z,42.67
2022-12-17T09:19:30.544Z,42.28
2022-12-17T09:22:16.834Z,45.65
2022-12-17T09:25:02.529Z,44.85
2022-12-17T09:27:55.286Z,45.45
2022-12-17T09:30:43.995Z,42.35
2022-12-17T09:33:34.348Z,45.60
2022-12-17T09:36:24.520Z,45.05
2022-12-17T09:39:10.805Z,44.25
2022-12-17T09:42:15.703Z,43.50
2022-12-17T09:45:22.145Z,42.75
2022-12-17T09:48:22.025Z,42.42
2022-12-17T09:51:10.309Z,38.08
2022-12-17T09:54:02.772Z,38.47
2022-12-17T09:56:51.514Z,35.28
2022-12-17T09:59:44.399Z,35.35
2022-12-17T10:02:38.844Z,37.08
2022-12-17T10:05:43.199Z,35.22
2022-12-17T10:08:34.507Z,35.17
2022-12-17T10:11:45.804Z,33.78
2022-12-17T10:14:40.223Z,32.92
2022-12-17T10:17:39.729Z,33.80
2022-12-17T10:20:47.636Z,34.10
2022-12-17T10:26:46.990Z,33.10
2022-12-17T10:29:47.804Z,34.30
2022-12-17T10:32:45.483Z,36.63
2022-12-17T10:35:49.449Z,36.75
2022-12-17T10:38:49.835Z,38.20
2022-12-17T10:41:49.630Z,38.17
2022-12-17T10:44:55.056Z,36.42
2022-12-17T10:47:42.428Z,36.10
2022-12-17T10:50:42.686Z,37.45
2022-12-17T10:53:46.901Z,37.58
2022-12-17T10:56:45.620Z,37.20
2022-12-17T10:59:43.662Z,37.70
2022-12-17T11:02:44.353Z,36.72
2022-12-17T11:05:46.029Z,37.03
2022-12-17T11:08:35.569Z,36.17
2022-12-17T11:11:28.786Z,37.80
2022-12-17T11:14:18.000Z,38.63
2022-12-17T11:17:11.130Z,38.85
2022-12-17T11:20:19.614Z,40.80
2022-12-17T11:23:15.125Z,37.10
2022-12-17T11:26:20.887Z,36.50
2022-12-17T11:29:07.000Z,36.55
2022-12-17T11:32:25.738Z,34.33
2022-12-17T11:35:30.677Z,34.60
2022-12-17T11:41:52.030Z,32.28
2022-12-17T11:45:00.425Z,33.85
2022-12-17T11:48:07.083Z,33.45
2022-12-17T11:51:09.117Z,33.15
2022-12-17T11:54:30.057Z,31.92
2022-12-17T11:57:28.244Z,33.03
2022-12-17T12:00:37.349Z,31.80
2022-12-17T12:10:50.260Z,29.63
2022-12-17T12:14:17.751Z,28.83
2022-12-17T12:17:53.298Z,30.08
2022-12-17T12:20:47.798Z,29.52
2022-12-17T12:24:01.818Z,30.40
2022-12-17T12:27:06.633Z,31.35
2022-12-17T12:30:30.916Z,31.52
2022-12-17T12:33:19.906Z,30.92
2022-12-17T12:36:06.219Z,31.52
2022-12-17T12:39:02.185Z,30.13
2022-12-17T12:42:26.822Z,31.45
2022-12-17T12:45:34.083Z,30.92
2022-12-17T12:48:39.732Z,30.70
2022-12-17T12:51:38.039Z,29.35
2022-12-17T12:55:05.260Z,31.35
2022-12-17T12:58:14.911Z,30.10
2022-12-17T13:01:29.651Z,31.33
2022-12-17T13:04:18.707Z,31.65
2022-12-17T13:06:56.876Z,31.23
2022-12-17T13:10:06.659Z,30.95
2022-12-17T13:12:45.473Z,30.05
2022-12-17T13:15:33.111Z,29.23
2022-12-17T13:18:29.547Z,29.05
2022-12-17T13:21:17.054Z,29.13
2022-12-17T13:23:46.519Z,29.33
2022-12-17T13:26:24.888Z,28.88
2022-12-17T13:29:32.253Z,27.65
2022-12-17T13:32:22.676Z,28.20
2022-12-17T13:35:10.553Z,29.83
2022-12-17T13:38:16.061Z,29.02
2022-12-17T13:41:10.532Z,27.67
2022-12-17T13:43:49.235Z,27.88
2022-12-17T13:46:49.623Z,27.88
2022-12-17T13:49:25.576Z,27.40
2022-12-17T13:52:11.765Z,26.42
2022-12-17T13:54:39.639Z,27.48
2022-12-17T13:57:17.055Z,27.20
2022-12-17T14:00:18.099Z,26.58
2022-12-17T14:02:45.538Z,27.95
2022-12-17T14:05:45.823Z,26.30
2022-12-17T14:08:18.237Z,27.25
2022-12-17T14:11:14.354Z,26.50
2022-12-17T14:13:43.774Z,28.10
2022-12-17T14:16:20.803Z,25.50
2022-12-17T14:18:54.018Z,24.85
2022-12-17T14:21:26.940Z,24.92
2022-12-17T14:23:55.479Z,25.35
2022-12-17T14:26:24.282Z,23.83
2022-12-17T14:28:55.384Z,23.45
2022-12-17T14:31:27.034Z,23.58
2022-12-17T14:34:10.960Z,23.70
2022-12-17T14:36:43.651Z,24.23
2022-12-17T14:39:31.793Z,24.88
2022-12-17T14:42:29.207Z,23.80
2022-12-17T14:47:31.742Z,24.17
2022-12-17T14:50:00.853Z,24.45
2022-12-17T14:52:39.404Z,24.38
2022-12-17T14:55:30.852Z,25.45
2022-12-17T14:58:13.210Z,24.85
2022-12-17T15:01:04.876Z,24.77
2022-12-17T15:03:37.446Z,35.53
2022-12-17T15:06:09.526Z,27.98
2022-12-17T15:08:41.156Z,25.40
2022-12-17T15:11:18.265Z,24.98
2022-12-17T15:13:51.616Z,25.10
2022-12-17T15:16:23.424Z,28.58
2022-12-17T15:18:50.957Z,26.25
2022-12-17T15:21:19.545Z,24.95
2022-12-17T15:23:47.568Z,24.50
2022-12-17T15:26:15.507Z,25.00
2022-12-17T15:28:46.265Z,24.63
2022-12-17T15:31:23.146Z,25.02
2022-12-17T15:33:53.338Z,22.75
2022-12-17T15:36:20.758Z,23.95
2022-12-17T15:38:50.374Z,24.55
2022-12-17T15:42:07.559Z,25.17
2022-12-17T15:44:38.524Z,23.75
2022-12-17T15:47:20.724Z,25.65
2022-12-17T15:49:48.184Z,27.58
2022-12-17T15:52:15.636Z,31.77
2022-12-17T15:54:43.379Z,30.10
2022-12-17T15:57:15.374Z,29.77
2022-12-17T15:59:45.624Z,30.38
2022-12-17T16:02:13.428Z,31.73
2022-12-17T16:04:41.061Z,30.42
2022-12-17T16:07:08.653Z,27.05
2022-12-17T16:09:35.987Z,35.45
2022-12-17T16:12:06.149Z,31.52
2022-12-17T16:14:33.601Z,29.55
2022-12-17T16:17:00.932Z,33.65
2022-12-17T16:19:28.339Z,43.67
2022-12-17T16:21:55.739Z,38.75
2022-12-17T16:24:23.757Z,45.83
2022-12-17T16:26:56.221Z,37.80
2022-12-17T16:29:27.785Z,34.88
2022-12-17T16:31:55.119Z,34.75
2022-12-17T16:34:51.639Z,34.08
2022-12-17T16:40:15.780Z,36.22
2022-12-17T16:43:46.456Z,40.85
2022-12-17T16:46:32.487Z,38.55
2022-12-17T16:49:45.594Z,37.00
2022-12-17T16:52:12.998Z,34.25
2022-12-17T16:54:40.316Z,35.50
2022-12-17T16:57:09.017Z,37.28
2022-12-17T17:02:28.004Z,35.72
2022-12-17T17:04:58.581Z,34.80
2022-12-17T17:07:34.996Z,34.70
2022-12-17T17:12:30.177Z,34.80
2022-12-17T17:15:01.373Z,35.78
2022-12-17T17:17:55.449Z,33.22
2022-12-17T17:20:17.372Z,29.92
2022-12-17T17:22:44.666Z,32.00
2022-12-17T17:26:48.220Z,32.22
2022-12-17T17:28:28.161Z,31.45
2022-12-17T17:30:59.936Z,31.58
2022-12-17T17:33:36.077Z,32.53
2022-12-17T17:37:44.548Z,33.13
2022-12-17T17:39:22.587Z,30.88
2022-12-17T17:41:52.011Z,34.08
2022-12-17T17:47:53.805Z,37.03
2022-12-17T17:50:23.842Z,33.15
2022-12-17T17:53:01.403Z,28.92
2022-12-17T17:55:34.707Z,25.63
2022-12-17T17:58:04.502Z,24.10
2022-12-17T18:00:32.171Z,23.92
2022-12-17T18:03:09.826Z,22.08
2022-12-17T18:05:46.997Z,23.63
2022-12-17T18:08:14.315Z,20.48
2022-12-17T18:10:44.674Z,19.05
2022-12-17T18:16:15.671Z,19.67
2022-12-17T18:18:43.314Z,18.67
2022-12-17T18:21:13.082Z,18.50
2022-12-17T18:23:43.775Z,16.38
2022-12-17T18:29:40.159Z,15.02
2022-12-17T18:32:13.563Z,13.85
2022-12-17T18:34:43.912Z,13.55
2022-12-17T18:37:11.287Z,13.60
2022-12-17T18:39:39.904Z,14.73
2022-12-17T18:42:34.189Z,14.57
2022-12-17T18:45:03.228Z,14.30
2022-12-17T18:47:30.510Z,13.05
2022-12-17T18:49:57.801Z,12.63
2022-12-17T18:52:25.313Z,13.07
2022-12-17T18:54:52.573Z,13.57
2022-12-17T18:57:45.487Z,12.43
2022-12-17T19:00:16.054Z,12.07
2022-12-17T19:02:45.718Z,12.23
2022-12-17T19:05:16.234Z,12.10
2022-12-17T19:08:08.848Z,11.70
2022-12-17T19:10:37.595Z,12.55
2022-12-17T19:13:04.900Z,11.98
2022-12-17T19:15:32.174Z,12.05
2022-12-17T19:18:05.698Z,12.18
2022-12-17T19:20:58.268Z,12.27
2022-12-17T19:23:30.069Z,11.63
2022-12-17T19:26:26.979Z,12.63
2022-12-17T19:28:59.215Z,15.00
2022-12-17T19:31:28.841Z,15.10
2022-12-17T19:33:57.989Z,17.95
2022-12-17T19:36:28.628Z,21.48
2022-12-17T19:42:24.739Z,23.85
2022-12-17T19:44:56.558Z,26.33
2022-12-17T19:47:24.192Z,26.52
2022-12-17T19:50:00.201Z,26.20
2022-12-17T19:52:27.873Z,31.20
2022-12-17T19:54:55.203Z,29.58
2022-12-17T19:57:22.521Z,31.63
2022-12-17T20:00:22.232Z,31.95
2022-12-17T20:02:49.619Z,29.75
2022-12-17T20:05:45.842Z,29.00
2022-12-17T20:08:17.046Z,32.22
2022-12-17T20:10:48.196Z,31.75
2022-12-17T20:13:15.419Z,32.03
2022-12-17T20:15:45.051Z,31.42
2022-12-17T20:18:14.282Z,32.67
2022-12-17T20:20:42.834Z,31.08
2022-12-17T20:23:11.079Z,31.77
2022-12-17T20:25:42.662Z,31.48
2022-12-17T20:28:10.007Z,31.92
2022-12-17T20:30:46.297Z,32.97
2022-12-17T20:33:15.758Z,33.58
2022-12-17T20:35:46.531Z,32.13
2022-12-17T20:38:13.959Z,31.77
2022-12-17T20:40:43.535Z,32.42
2022-12-17T20:43:10.966Z,34.03
2022-12-17T20:45:38.358Z,32.65
2022-12-17T20:48:05.783Z,33.67
2022-12-17T20:50:35.161Z,33.28
2022-12-17T20:53:02.427Z,34.05
2022-12-17T20:55:32.057Z,35.72
2022-12-17T20:57:59.391Z,35.58
2022-12-17T21:00:26.677Z,35.08
2022-12-17T21:02:54.300Z,32.72
2022-12-17T21:05:21.694Z,34.45
2022-12-17T21:07:51.084Z,32.72
2022-12-17T21:10:20.176Z,33.08
2022-12-17T21:13:08.681Z,30.55
2022-12-17T21:15:36.209Z,31.10
2022-12-17T21:18:03.846Z,34.22
2022-12-17T21:20:31.147Z,33.75
2022-12-17T21:23:11.867Z,36.83
2022-12-17T21:25:39.208Z,36.95
2022-12-17T21:28:06.546Z,36.40
2022-12-17T21:30:36.396Z,36.13
2022-12-17T21:33:03.788Z,33.13
2022-12-17T21:35:31.293Z,34.38
2022-12-17T21:37:58.628Z,34.28
2022-12-17T21:40:27.974Z,32.83
2022-12-17T21:43:04.162Z,30.70
2022-12-17T21:45:37.437Z,30.30
2022-12-17T21:48:11.307Z,29.42
2022-12-17T21:50:45.789Z,31.50
2022-12-17T21:53:16.180Z,31.13
2022-12-17T21:55:43.933Z,30.35
2022-12-17T21:58:11.520Z,31.63
2022-12-17T22:00:41.172Z,31.40
2022-12-17T22:03:08.755Z,34.08
2022-12-17T22:05:38.488Z,34.80
2022-12-17T22:08:05.885Z,38.08
2022-12-17T22:10:40.367Z,37.15
2022-12-17T22:13:30.841Z,37.95
2022-12-17T22:15:58.184Z,34.78
2022-12-17T22:18:28.738Z,33.47
2022-12-17T22:21:01.321Z,33.55
2022-12-17T22:23:35.970Z,32.45
2022-12-17T22:26:10.451Z,33.22
2022-12-17T22:28:38.348Z,32.63
2022-12-17T22:31:25.604Z,32.08
2022-12-17T22:34:53.913Z,34.15
2022-12-17T22:38:18.605Z,39.20
2022-12-17T22:44:30.556Z,37.25
2022-12-17T22:44:41.786Z,40.92
2022-12-17T22:45:30.766Z,35.78
2022-12-17T22:47:58.058Z,35.65
2022-12-17T22:50:28.160Z,35.22
2022-12-17T22:53:01.025Z,34.63
2022-12-17T22:55:28.750Z,34.28
2022-12-17T22:57:57.223Z,30.65
2022-12-17T23:00:33.952Z,32.40
2022-12-17T23:03:01.881Z,32.25
2022-12-17T23:05:30.067Z,30.13
2022-12-17T23:07:57.721Z,32.45
2022-12-17T23:10:25.783Z,30.05
2022-12-17T23:12:55.013Z,30.02
2022-12-17T23:15:36.879Z,27.50
2022-12-17T23:18:06.510Z,27.63
2022-12-17T23:20:34.797Z,25.75
2022-12-17T23:23:03.592Z,26.23
2022-12-17T23:25:32.317Z,28.08
2022-12-17T23:28:02.775Z,28.17
2022-12-17T23:30:32.182Z,29.35
2022-12-17T23:33:01.865Z,31.13
2022-12-17T23:35:29.463Z,31.83
2022-12-17T23:37:56.859Z,32.03
2022-12-17T23:40:25.180Z,31.00
2022-12-17T23:42:52.557Z,31.33
2022-12-17T23:45:19.891Z,30.92
2022-12-17T23:47:47.272Z,29.75
2022-12-17T23:50:16.901Z,29.02
2022-12-17T23:52:46.655Z,28.35
2022-12-17T23:55:13.995Z,26.48
2022-12-17T23:57:41.418Z,26.83
